sensor_id;sensor_type;location;lat;lon;timestamp;temperature;humidity
15969;DHT22;8085;53.472;9.794;2023-01-24T00:02:15;2.70;99.90
15969;DHT22;8085;53.472;9.794;2023-01-24T00:04:42;2.80;99.90
15969;DHT22;8085;53.472;9.794;2023-01-24T00:07:08;2.70;99.90
15969;DHT22;8085;53.472;9.794;2023-01-24T00:09:35;2.70;99.90
15969;DHT22;8085;53.472;9.794;2023-01-24T00:12:02;2.70;99.90
15969;DHT22;8085;53.472;9.794;2023-01-24T00:14:29;2.70;99.90
15969;DHT22;8085;53.472;9.794;2023-01-24T00:16:57;2.70;99.90
15969;DHT22;8085;53.472;9.794;2023-01-24T00:19:24;2.70;99.90
15969;DHT22;8085;53.472;9.794;2023-01-24T00:21:51;2.70;99.90
15969;DHT22;8085;53.472;9.794;2023-01-24T00:24:17;2.70;99.90
15969;DHT22;8085;53.472;9.794;2023-01-24T00:26:44;2.70;99.90
15969;DHT22;8085;53.472;9.794;2023-01-24T00:29:11;2.70;99.90
15969;DHT22;8085;53.472;9.794;2023-01-24T00:31:38;2.70;99.90
15969;DHT22;8085;53.472;9.794;2023-01-24T00:34:06;2.70;99.90
15969;DHT22;8085;53.472;9.794;2023-01-24T00:36:33;2.60;99.90
15969;DHT22;8085;53.472;9.794;2023-01-24T00:39:00;2.70;99.90
15969;DHT22;8085;53.472;9.794;2023-01-24T00:41:27;2.70;99.90
15969;DHT22;8085;53.472;9.794;2023-01-24T00:43:53;2.70;99.90
15969;DHT22;8085;53.472;9.794;2023-01-24T00:46:20;2.60;99.90
15969;DHT22;8085;53.472;9.794;2023-01-24T00:48:47;2.60;99.90
15969;DHT22;8085;53.472;9.794;2023-01-24T00:51:16;2.70;99.90
15969;DHT22;8085;53.472;9.794;2023-01-24T00:53:42;2.60;99.90
15969;DHT22;8085;53.472;9.794;2023-01-24T00:56:09;2.70;99.90
15969;DHT22;8085;53.472;9.794;2023-01-24T00:58:36;2.60;99.90
15969;DHT22;8085;53.472;9.794;2023-01-24T01:01:03;2.60;99.90
15969;DHT22;8085;53.472;9.794;2023-01-24T01:03:30;2.60;99.90
15969;DHT22;8085;53.472;9.794;2023-01-24T01:05:58;2.60;99.90
15969;DHT22;8085;53.472;9.794;2023-01-24T01:08:27;2.60;99.90
15969;DHT22;8085;53.472;9.794;2023-01-24T01:10:53;2.60;99.90
15969;DHT22;8085;53.472;9.794;2023-01-24T01:13:20;2.60;99.90
15969;DHT22;8085;53.472;9.794;2023-01-24T01:15:47;2.60;99.90
15969;DHT22;8085;53.472;9.794;2023-01-24T01:18:14;2.60;99.90
15969;DHT22;8085;53.472;9.794;2023-01-24T01:20:41;2.60;99.90
15969;DHT22;8085;53.472;9.794;2023-01-24T01:23:07;2.60;99.90
15969;DHT22;8085;53.472;9.794;2023-01-24T01:25:38;2.60;99.90
15969;DHT22;8085;53.472;9.794;2023-01-24T01:28:04;2.60;99.90
15969;DHT22;8085;53.472;9.794;2023-01-24T01:30:31;2.60;99.90
15969;DHT22;8085;53.472;9.794;2023-01-24T01:32:58;2.60;99.90
15969;DHT22;8085;53.472;9.794;2023-01-24T01:35:25;2.60;99.90
15969;DHT22;8085;53.472;9.794;2023-01-24T01:37:52;2.60;99.90
15969;DHT22;8085;53.472;9.794;2023-01-24T01:40:19;2.60;99.90
15969;DHT22;8085;53.472;9.794;2023-01-24T01:42:50;2.60;99.90
15969;DHT22;8085;53.472;9.794;2023-01-24T01:45:35;2.60;99.90
15969;DHT22;8085;53.472;9.794;2023-01-24T01:48:12;2.60;99.90
15969;DHT22;8085;53.472;9.794;2023-01-24T01:50:44;2.60;99.90
15969;DHT22;8085;53.472;9.794;2023-01-24T01:53:13;2.60;99.90
15969;DHT22;8085;53.472;9.794;2023-01-24T01:55:45;2.60;99.90
15969;DHT22;8085;53.472;9.794;2023-01-24T01:58:17;2.60;99.90
15969;DHT22;8085;53.472;9.794;2023-01-24T02:00:45;2.60;99.90
15969;DHT22;8085;53.472;9.794;2023-01-24T02:03:18;2.60;99.90
15969;DHT22;8085;53.472;9.794;2023-01-24T02:06:03;2.60;99.90
15969;DHT22;8085;53.472;9.794;2023-01-24T02:08:30;2.60;99.90
15969;DHT22;8085;53.472;9.794;2023-01-24T02:10:59;2.60;99.90
15969;DHT22;8085;53.472;9.794;2023-01-24T02:13:46;2.50;99.90
15969;DHT22;8085;53.472;9.794;2023-01-24T02:16:15;2.50;99.90
15969;DHT22;8085;53.472;9.794;2023-01-24T02:18:42;2.60;99.90
15969;DHT22;8085;53.472;9.794;2023-01-24T02:21:11;2.60;99.90
15969;DHT22;8085;53.472;9.794;2023-01-24T02:23:48;2.60;99.90
15969;DHT22;8085;53.472;9.794;2023-01-24T02:26:20;2.50;99.90
15969;DHT22;8085;53.472;9.794;2023-01-24T02:28:50;2.60;99.90
15969;DHT22;8085;53.472;9.794;2023-01-24T02:31:18;2.60;99.90
15969;DHT22;8085;53.472;9.794;2023-01-24T02:33:45;2.50;99.90
15969;DHT22;8085;53.472;9.794;2023-01-24T02:36:18;2.50;99.90
15969;DHT22;8085;53.472;9.794;2023-01-24T02:38:49;2.50;99.90
15969;DHT22;8085;53.472;9.794;2023-01-24T02:41:19;2.50;99.90
15969;DHT22;8085;53.472;9.794;2023-01-24T02:43:50;2.50;99.90
15969;DHT22;8085;53.472;9.794;2023-01-24T02:46:17;2.50;99.90
15969;DHT22;8085;53.472;9.794;2023-01-24T02:48:44;2.50;99.90
15969;DHT22;8085;53.472;9.794;2023-01-24T02:51:11;2.50;99.90
15969;DHT22;8085;53.472;9.794;2023-01-24T02:53:55;2.50;99.90
15969;DHT22;8085;53.472;9.794;2023-01-24T02:56:23;2.50;99.90
15969;DHT22;8085;53.472;9.794;2023-01-24T02:59:13;2.50;99.90
15969;DHT22;8085;53.472;9.794;2023-01-24T03:01:40;2.50;99.90
15969;DHT22;8085;53.472;9.794;2023-01-24T03:04:07;2.50;99.90
15969;DHT22;8085;53.472;9.794;2023-01-24T03:06:36;2.50;99.90
15969;DHT22;8085;53.472;9.794;2023-01-24T03:09:03;2.50;99.90
15969;DHT22;8085;53.472;9.794;2023-01-24T03:11:45;2.60;99.90
15969;DHT22;8085;53.472;9.794;2023-01-24T03:14:12;2.60;99.90
15969;DHT22;8085;53.472;9.794;2023-01-24T03:16:57;2.50;99.90
15969;DHT22;8085;53.472;9.794;2023-01-24T03:19:41;2.50;99.90
15969;DHT22;8085;53.472;9.794;2023-01-24T03:22:25;2.60;99.90
15969;DHT22;8085;53.472;9.794;2023-01-24T03:25:09;2.60;99.90
15969;DHT22;8085;53.472;9.794;2023-01-24T03:27:55;2.60;99.90
15969;DHT22;8085;53.472;9.794;2023-01-24T03:30:39;2.60;99.90
15969;DHT22;8085;53.472;9.794;2023-01-24T03:33:23;2.50;99.90
15969;DHT22;8085;53.472;9.794;2023-01-24T03:36:07;2.50;99.90
15969;DHT22;8085;53.472;9.794;2023-01-24T03:38:39;2.50;99.90
15969;DHT22;8085;53.472;9.794;2023-01-24T03:41:23;2.50;99.90
15969;DHT22;8085;53.472;9.794;2023-01-24T03:43:51;2.40;99.90
15969;DHT22;8085;53.472;9.794;2023-01-24T03:46:18;2.50;99.90
15969;DHT22;8085;53.472;9.794;2023-01-24T03:48:45;2.50;99.90
15969;DHT22;8085;53.472;9.794;2023-01-24T03:51:12;2.40;99.90
15969;DHT22;8085;53.472;9.794;2023-01-24T03:53:56;2.50;99.90
15969;DHT22;8085;53.472;9.794;2023-01-24T03:56:23;2.40;99.90
15969;DHT22;8085;53.472;9.794;2023-01-24T03:58:52;2.40;99.90
15969;DHT22;8085;53.472;9.794;2023-01-24T04:01:19;2.50;99.90
15969;DHT22;8085;53.472;9.794;2023-01-24T04:03:46;2.40;99.90
15969;DHT22;8085;53.472;9.794;2023-01-24T04:06:13;2.40;99.90
15969;DHT22;8085;53.472;9.794;2023-01-24T04:08:40;2.40;99.90
15969;DHT22;8085;53.472;9.794;2023-01-24T04:11:07;2.40;99.90
15969;DHT22;8085;53.472;9.794;2023-01-24T04:13:33;2.40;99.90
15969;DHT22;8085;53.472;9.794;2023-01-24T04:16:02;2.50;99.90
15969;DHT22;8085;53.472;9.794;2023-01-24T04:18:29;2.50;99.90
15969;DHT22;8085;53.472;9.794;2023-01-24T04:20:55;2.50;99.90
15969;DHT22;8085;53.472;9.794;2023-01-24T04:23:23;2.50;99.90
15969;DHT22;8085;53.472;9.794;2023-01-24T04:25:50;2.50;99.90
15969;DHT22;8085;53.472;9.794;2023-01-24T04:28:20;2.50;99.90
15969;DHT22;8085;53.472;9.794;2023-01-24T04:30:47;2.50;99.90
15969;DHT22;8085;53.472;9.794;2023-01-24T04:33:15;2.50;99.90
15969;DHT22;8085;53.472;9.794;2023-01-24T04:35:42;2.50;99.90
15969;DHT22;8085;53.472;9.794;2023-01-24T04:38:09;2.50;99.90
15969;DHT22;8085;53.472;9.794;2023-01-24T04:40:36;2.50;99.90
15969;DHT22;8085;53.472;9.794;2023-01-24T04:43:02;2.50;99.90
15969;DHT22;8085;53.472;9.794;2023-01-24T04:45:29;2.50;99.90
15969;DHT22;8085;53.472;9.794;2023-01-24T04:47:56;2.50;99.90
15969;DHT22;8085;53.472;9.794;2023-01-24T04:50:24;2.50;99.90
15969;DHT22;8085;53.472;9.794;2023-01-24T04:52:51;2.50;99.90
15969;DHT22;8085;53.472;9.794;2023-01-24T04:55:18;2.50;99.90
15969;DHT22;8085;53.472;9.794;2023-01-24T04:57:44;2.50;99.90
15969;DHT22;8085;53.472;9.794;2023-01-24T05:00:12;2.50;99.90
15969;DHT22;8085;53.472;9.794;2023-01-24T05:02:38;2.50;99.90
15969;DHT22;8085;53.472;9.794;2023-01-24T05:05:06;2.50;99.90
15969;DHT22;8085;53.472;9.794;2023-01-24T05:07:35;2.50;99.90
15969;DHT22;8085;53.472;9.794;2023-01-24T05:10:01;2.50;99.90
15969;DHT22;8085;53.472;9.794;2023-01-24T05:12:28;2.50;99.90
15969;DHT22;8085;53.472;9.794;2023-01-24T05:14:55;2.50;99.90
15969;DHT22;8085;53.472;9.794;2023-01-24T05:17:22;2.50;99.90
15969;DHT22;8085;53.472;9.794;2023-01-24T05:19:48;2.50;99.90
15969;DHT22;8085;53.472;9.794;2023-01-24T05:22:15;2.50;99.90
15969;DHT22;8085;53.472;9.794;2023-01-24T05:24:43;2.40;99.90
15969;DHT22;8085;53.472;9.794;2023-01-24T05:27:10;2.40;99.90
15969;DHT22;8085;53.472;9.794;2023-01-24T05:29:37;2.40;99.90
15969;DHT22;8085;53.472;9.794;2023-01-24T05:32:04;2.40;99.90
15969;DHT22;8085;53.472;9.794;2023-01-24T05:34:31;2.40;99.90
15969;DHT22;8085;53.472;9.794;2023-01-24T05:36:58;2.40;99.90
15969;DHT22;8085;53.472;9.794;2023-01-24T05:39:24;2.40;99.90
15969;DHT22;8085;53.472;9.794;2023-01-24T05:41:53;2.40;99.90
15969;DHT22;8085;53.472;9.794;2023-01-24T05:44:19;2.40;99.90
15969;DHT22;8085;53.472;9.794;2023-01-24T05:46:46;2.40;99.90
15969;DHT22;8085;53.472;9.794;2023-01-24T05:49:13;2.40;99.90
15969;DHT22;8085;53.472;9.794;2023-01-24T05:51:40;2.40;99.90
15969;DHT22;8085;53.472;9.794;2023-01-24T05:54:07;2.40;99.90
15969;DHT22;8085;53.472;9.794;2023-01-24T05:56:34;2.40;99.90
15969;DHT22;8085;53.472;9.794;2023-01-24T05:59:02;2.40;99.90
15969;DHT22;8085;53.472;9.794;2023-01-24T06:01:29;2.40;99.90
15969;DHT22;8085;53.472;9.794;2023-01-24T06:03:56;2.40;99.90
15969;DHT22;8085;53.472;9.794;2023-01-24T06:06:24;2.40;99.90
15969;DHT22;8085;53.472;9.794;2023-01-24T06:08:51;2.40;99.90
15969;DHT22;8085;53.472;9.794;2023-01-24T06:11:20;2.40;99.90
15969;DHT22;8085;53.472;9.794;2023-01-24T06:13:48;2.40;99.90
15969;DHT22;8085;53.472;9.794;2023-01-24T06:16:17;2.40;99.90
15969;DHT22;8085;53.472;9.794;2023-01-24T06:18:45;2.30;99.90
15969;DHT22;8085;53.472;9.794;2023-01-24T06:21:22;2.40;99.90
15969;DHT22;8085;53.472;9.794;2023-01-24T06:23:51;2.40;99.90
15969;DHT22;8085;53.472;9.794;2023-01-24T06:26:19;2.40;99.90
15969;DHT22;8085;53.472;9.794;2023-01-24T06:28:46;2.30;99.90
15969;DHT22;8085;53.472;9.794;2023-01-24T06:31:24;2.40;99.90
15969;DHT22;8085;53.472;9.794;2023-01-24T06:34:05;2.40;99.90
15969;DHT22;8085;53.472;9.794;2023-01-24T06:36:45;2.40;99.90
15969;DHT22;8085;53.472;9.794;2023-01-24T06:39:15;2.40;99.90
15969;DHT22;8085;53.472;9.794;2023-01-24T06:41:42;2.40;99.90
15969;DHT22;8085;53.472;9.794;2023-01-24T06:44:10;2.40;99.90
15969;DHT22;8085;53.472;9.794;2023-01-24T06:46:38;2.30;99.90
15969;DHT22;8085;53.472;9.794;2023-01-24T06:49:05;2.40;99.90
15969;DHT22;8085;53.472;9.794;2023-01-24T06:51:32;2.40;99.90
15969;DHT22;8085;53.472;9.794;2023-01-24T06:53:59;2.40;99.90
15969;DHT22;8085;53.472;9.794;2023-01-24T06:56:26;2.40;99.90
15969;DHT22;8085;53.472;9.794;2023-01-24T06:58:53;2.40;99.90
15969;DHT22;8085;53.472;9.794;2023-01-24T07:01:19;2.30;99.90
15969;DHT22;8085;53.472;9.794;2023-01-24T07:03:48;2.30;99.90
15969;DHT22;8085;53.472;9.794;2023-01-24T07:06:15;2.30;99.90
15969;DHT22;8085;53.472;9.794;2023-01-24T07:08:42;2.30;99.90
15969;DHT22;8085;53.472;9.794;2023-01-24T07:11:08;2.30;99.90
15969;DHT22;8085;53.472;9.794;2023-01-24T07:13:35;2.30;99.90
15969;DHT22;8085;53.472;9.794;2023-01-24T07:16:02;2.30;99.90
15969;DHT22;8085;53.472;9.794;2023-01-24T07:18:30;2.30;99.90
15969;DHT22;8085;53.472;9.794;2023-01-24T07:21:05;2.30;99.90
15969;DHT22;8085;53.472;9.794;2023-01-24T07:23:33;2.30;99.90
15969;DHT22;8085;53.472;9.794;2023-01-24T07:26:01;2.30;99.90
15969;DHT22;8085;53.472;9.794;2023-01-24T07:28:28;2.30;99.90
15969;DHT22;8085;53.472;9.794;2023-01-24T07:30:55;2.30;99.90
15969;DHT22;8085;53.472;9.794;2023-01-24T07:33:22;2.30;99.90
15969;DHT22;8085;53.472;9.794;2023-01-24T07:35:49;2.30;99.90
15969;DHT22;8085;53.472;9.794;2023-01-24T07:38:17;2.30;99.90
15969;DHT22;8085;53.472;9.794;2023-01-24T07:40:44;2.30;99.90
15969;DHT22;8085;53.472;9.794;2023-01-24T07:43:11;2.30;99.90
15969;DHT22;8085;53.472;9.794;2023-01-24T07:45:37;2.30;99.90
15969;DHT22;8085;53.472;9.794;2023-01-24T07:48:05;2.30;99.90
15969;DHT22;8085;53.472;9.794;2023-01-24T07:50:33;2.30;99.90
15969;DHT22;8085;53.472;9.794;2023-01-24T07:53:00;2.30;99.90
15969;DHT22;8085;53.472;9.794;2023-01-24T07:55:28;2.30;99.90
15969;DHT22;8085;53.472;9.794;2023-01-24T07:57:59;2.30;99.90
15969;DHT22;8085;53.472;9.794;2023-01-24T08:00:26;2.30;99.90
15969;DHT22;8085;53.472;9.794;2023-01-24T08:02:53;2.30;99.90
15969;DHT22;8085;53.472;9.794;2023-01-24T08:05:20;2.30;99.90
15969;DHT22;8085;53.472;9.794;2023-01-24T08:07:46;2.30;99.90
15969;DHT22;8085;53.472;9.794;2023-01-24T08:10:13;2.30;99.90
15969;DHT22;8085;53.472;9.794;2023-01-24T08:12:42;2.30;99.90
15969;DHT22;8085;53.472;9.794;2023-01-24T08:15:09;2.40;99.90
15969;DHT22;8085;53.472;9.794;2023-01-24T08:17:36;2.30;99.90
15969;DHT22;8085;53.472;9.794;2023-01-24T08:20:05;2.30;99.90
15969;DHT22;8085;53.472;9.794;2023-01-24T08:22:33;2.30;99.90
15969;DHT22;8085;53.472;9.794;2023-01-24T08:24:59;2.30;99.90
15969;DHT22;8085;53.472;9.794;2023-01-24T08:27:26;2.30;99.90
15969;DHT22;8085;53.472;9.794;2023-01-24T08:29:54;2.30;99.90
15969;DHT22;8085;53.472;9.794;2023-01-24T08:32:21;2.30;99.90
15969;DHT22;8085;53.472;9.794;2023-01-24T08:34:48;2.30;99.90
15969;DHT22;8085;53.472;9.794;2023-01-24T08:37:15;2.30;99.90
15969;DHT22;8085;53.472;9.794;2023-01-24T08:39:42;2.30;99.90
15969;DHT22;8085;53.472;9.794;2023-01-24T08:42:09;2.30;99.90
15969;DHT22;8085;53.472;9.794;2023-01-24T08:44:36;2.40;99.90
15969;DHT22;8085;53.472;9.794;2023-01-24T08:47:05;2.40;99.90
15969;DHT22;8085;53.472;9.794;2023-01-24T08:49:32;2.40;99.90
15969;DHT22;8085;53.472;9.794;2023-01-24T08:51:59;2.40;99.90
15969;DHT22;8085;53.472;9.794;2023-01-24T08:54:26;2.30;99.90
15969;DHT22;8085;53.472;9.794;2023-01-24T08:56:53;2.40;99.90
15969;DHT22;8085;53.472;9.794;2023-01-24T08:59:20;2.40;99.90
15969;DHT22;8085;53.472;9.794;2023-01-24T09:01:47;2.40;99.90
15969;DHT22;8085;53.472;9.794;2023-01-24T09:04:15;2.40;99.90
15969;DHT22;8085;53.472;9.794;2023-01-24T09:06:42;2.40;99.90
15969;DHT22;8085;53.472;9.794;2023-01-24T09:09:09;2.40;99.90
15969;DHT22;8085;53.472;9.794;2023-01-24T09:11:35;2.40;99.90
15969;DHT22;8085;53.472;9.794;2023-01-24T09:14:02;2.40;99.90
15969;DHT22;8085;53.472;9.794;2023-01-24T09:16:29;2.40;99.90
15969;DHT22;8085;53.472;9.794;2023-01-24T09:18:56;2.40;99.90
15969;DHT22;8085;53.472;9.794;2023-01-24T09:21:24;2.40;99.90
15969;DHT22;8085;53.472;9.794;2023-01-24T09:23:53;2.40;99.90
15969;DHT22;8085;53.472;9.794;2023-01-24T09:26:20;2.40;99.90
15969;DHT22;8085;53.472;9.794;2023-01-24T09:28:47;2.40;99.90
15969;DHT22;8085;53.472;9.794;2023-01-24T09:31:14;2.40;99.90
15969;DHT22;8085;53.472;9.794;2023-01-24T09:33:41;2.50;99.90
15969;DHT22;8085;53.472;9.794;2023-01-24T09:36:08;2.40;99.90
15969;DHT22;8085;53.472;9.794;2023-01-24T09:38:36;2.50;99.90
15969;DHT22;8085;53.472;9.794;2023-01-24T09:41:10;2.40;99.90
15969;DHT22;8085;53.472;9.794;2023-01-24T09:43:45;2.50;99.90
15969;DHT22;8085;53.472;9.794;2023-01-24T09:46:25;2.40;99.50
15969;DHT22;8085;53.472;9.794;2023-01-24T09:48:59;2.50;99.90
15969;DHT22;8085;53.472;9.794;2023-01-24T09:51:30;2.50;99.80
15969;DHT22;8085;53.472;9.794;2023-01-24T09:54:00;2.50;99.90
15969;DHT22;8085;53.472;9.794;2023-01-24T09:56:30;2.50;99.90
15969;DHT22;8085;53.472;9.794;2023-01-24T09:59:12;2.40;99.90
15969;DHT22;8085;53.472;9.794;2023-01-24T10:01:41;2.40;99.90
15969;DHT22;8085;53.472;9.794;2023-01-24T10:04:15;2.40;99.90
15969;DHT22;8085;53.472;9.794;2023-01-24T10:06:58;2.40;99.90
15969;DHT22;8085;53.472;9.794;2023-01-24T10:09:35;2.40;99.90
15969;DHT22;8085;53.472;9.794;2023-01-24T10:12:19;2.40;99.90
15969;DHT22;8085;53.472;9.794;2023-01-24T10:14:59;2.50;99.90
15969;DHT22;8085;53.472;9.794;2023-01-24T10:17:41;2.50;99.90
15969;DHT22;8085;53.472;9.794;2023-01-24T10:20:21;2.50;99.90
15969;DHT22;8085;53.472;9.794;2023-01-24T10:23:05;2.50;99.90
15969;DHT22;8085;53.472;9.794;2023-01-24T10:25:45;2.50;99.90
15969;DHT22;8085;53.472;9.794;2023-01-24T10:28:22;2.50;99.40
15969;DHT22;8085;53.472;9.794;2023-01-24T10:31:00;2.50;97.70
15969;DHT22;8085;53.472;9.794;2023-01-24T10:33:31;2.40;97.30
15969;DHT22;8085;53.472;9.794;2023-01-24T10:36:03;2.40;98.30
15969;DHT22;8085;53.472;9.794;2023-01-24T10:38:31;2.40;99.90
15969;DHT22;8085;53.472;9.794;2023-01-24T10:41:16;2.40;99.90
15969;DHT22;8085;53.472;9.794;2023-01-24T10:43:45;2.40;99.90
15969;DHT22;8085;53.472;9.794;2023-01-24T10:46:29;2.40;99.90
15969;DHT22;8085;53.472;9.794;2023-01-24T10:49:01;2.50;99.90
15969;DHT22;8085;53.472;9.794;2023-01-24T10:51:29;2.50;99.90
15969;DHT22;8085;53.472;9.794;2023-01-24T10:54:01;2.50;99.90
15969;DHT22;8085;53.472;9.794;2023-01-24T10:56:29;2.50;99.90
15969;DHT22;8085;53.472;9.794;2023-01-24T10:58:58;2.50;98.40
15969;DHT22;8085;53.472;9.794;2023-01-24T11:01:33;2.50;98.20
15969;DHT22;8085;53.472;9.794;2023-01-24T11:04:13;2.60;97.80
15969;DHT22;8085;53.472;9.794;2023-01-24T11:06:40;2.50;95.20
15969;DHT22;8085;53.472;9.794;2023-01-24T11:09:11;2.50;94.70
15969;DHT22;8085;53.472;9.794;2023-01-24T11:11:43;2.50;95.00
15969;DHT22;8085;53.472;9.794;2023-01-24T11:14:14;2.50;95.90
15969;DHT22;8085;53.472;9.794;2023-01-24T11:16:43;2.50;95.60
15969;DHT22;8085;53.472;9.794;2023-01-24T11:19:24;2.50;96.50
15969;DHT22;8085;53.472;9.794;2023-01-24T11:21:53;2.50;95.00
15969;DHT22;8085;53.472;9.794;2023-01-24T11:24:20;2.50;96.20
15969;DHT22;8085;53.472;9.794;2023-01-24T11:26:55;2.40;95.30
15969;DHT22;8085;53.472;9.794;2023-01-24T11:29:23;2.50;96.80
15969;DHT22;8085;53.472;9.794;2023-01-24T11:31:52;2.50;95.60
15969;DHT22;8085;53.472;9.794;2023-01-24T11:34:44;2.40;92.60
15969;DHT22;8085;53.472;9.794;2023-01-24T11:37:52;2.40;90.40
15969;DHT22;8085;53.472;9.794;2023-01-24T11:40:37;2.40;91.00
15969;DHT22;8085;53.472;9.794;2023-01-24T11:46:13;2.40;86.70
15969;DHT22;8085;53.472;9.794;2023-01-24T11:48:47;2.40;95.50
15969;DHT22;8085;53.472;9.794;2023-01-24T11:51:23;2.40;95.70
15969;DHT22;8085;53.472;9.794;2023-01-24T11:54:09;2.40;95.00
15969;DHT22;8085;53.472;9.794;2023-01-24T11:56:46;2.50;96.40
15969;DHT22;8085;53.472;9.794;2023-01-24T11:59:31;2.50;96.80
15969;DHT22;8085;53.472;9.794;2023-01-24T12:08:13;2.40;95.10
15969;DHT22;8085;53.472;9.794;2023-01-24T12:10:53;2.40;95.10
15969;DHT22;8085;53.472;9.794;2023-01-24T12:13:29;2.40;95.50
15969;DHT22;8085;53.472;9.794;2023-01-24T12:16:09;2.40;95.90
15969;DHT22;8085;53.472;9.794;2023-01-24T12:18:58;2.40;94.70
15969;DHT22;8085;53.472;9.794;2023-01-24T12:21:26;2.40;95.70
15969;DHT22;8085;53.472;9.794;2023-01-24T12:23:57;2.40;95.30
15969;DHT22;8085;53.472;9.794;2023-01-24T12:26:27;2.40;93.70
15969;DHT22;8085;53.472;9.794;2023-01-24T12:29:00;2.40;93.80
15969;DHT22;8085;53.472;9.794;2023-01-24T12:31:37;2.40;93.90
15969;DHT22;8085;53.472;9.794;2023-01-24T12:34:13;2.40;94.70
15969;DHT22;8085;53.472;9.794;2023-01-24T12:36:48;2.40;94.50
15969;DHT22;8085;53.472;9.794;2023-01-24T12:39:20;2.40;93.10
15969;DHT22;8085;53.472;9.794;2023-01-24T12:41:52;2.40;94.90
15969;DHT22;8085;53.472;9.794;2023-01-24T12:44:26;2.40;93.90
15969;DHT22;8085;53.472;9.794;2023-01-24T12:47:09;2.40;94.60
15969;DHT22;8085;53.472;9.794;2023-01-24T12:49:45;2.40;95.60
15969;DHT22;8085;53.472;9.794;2023-01-24T12:52:19;2.50;95.70
15969;DHT22;8085;53.472;9.794;2023-01-24T12:54:50;2.50;95.70
15969;DHT22;8085;53.472;9.794;2023-01-24T12:57:24;2.50;94.40
15969;DHT22;8085;53.472;9.794;2023-01-24T12:59:52;2.50;91.20
15969;DHT22;8085;53.472;9.794;2023-01-24T13:02:31;2.50;90.20
15969;DHT22;8085;53.472;9.794;2023-01-24T13:05:20;2.40;89.00
15969;DHT22;8085;53.472;9.794;2023-01-24T13:07:57;2.40;90.70
15969;DHT22;8085;53.472;9.794;2023-01-24T13:10:37;2.40;93.30
15969;DHT22;8085;53.472;9.794;2023-01-24T13:13:14;2.30;89.60
15969;DHT22;8085;53.472;9.794;2023-01-24T13:15:54;2.30;90.60
15969;DHT22;8085;53.472;9.794;2023-01-24T13:18:42;2.30;93.00
15969;DHT22;8085;53.472;9.794;2023-01-24T13:21:16;2.30;92.70
15969;DHT22;8085;53.472;9.794;2023-01-24T13:23:58;2.30;94.40
15969;DHT22;8085;53.472;9.794;2023-01-24T13:26:45;2.30;96.80
15969;DHT22;8085;53.472;9.794;2023-01-24T13:29:29;2.20;94.40
15969;DHT22;8085;53.472;9.794;2023-01-24T13:32:04;2.30;98.20
15969;DHT22;8085;53.472;9.794;2023-01-24T13:34:36;2.30;98.70
15969;DHT22;8085;53.472;9.794;2023-01-24T13:37:05;2.30;95.40
15969;DHT22;8085;53.472;9.794;2023-01-24T13:39:34;2.30;94.30
15969;DHT22;8085;53.472;9.794;2023-01-24T13:42:05;2.30;96.10
15969;DHT22;8085;53.472;9.794;2023-01-24T13:44:33;2.30;98.30
15969;DHT22;8085;53.472;9.794;2023-01-24T13:50:12;2.30;98.00
15969;DHT22;8085;53.472;9.794;2023-01-24T13:52:44;2.30;99.20
15969;DHT22;8085;53.472;9.794;2023-01-24T13:58:31;2.20;99.90
15969;DHT22;8085;53.472;9.794;2023-01-24T14:01:01;2.20;99.90
15969;DHT22;8085;53.472;9.794;2023-01-24T14:03:31;2.30;99.90
15969;DHT22;8085;53.472;9.794;2023-01-24T14:06:11;2.20;99.90
15969;DHT22;8085;53.472;9.794;2023-01-24T14:09:00;2.20;99.40
15969;DHT22;8085;53.472;9.794;2023-01-24T14:11:40;2.10;98.70
15969;DHT22;8085;53.472;9.794;2023-01-24T14:14:31;2.10;99.90
15969;DHT22;8085;53.472;9.794;2023-01-24T14:19:46;2.10;99.90
15969;DHT22;8085;53.472;9.794;2023-01-24T14:22:20;2.10;99.90
15969;DHT22;8085;53.472;9.794;2023-01-24T14:24:54;2.10;99.90
15969;DHT22;8085;53.472;9.794;2023-01-24T14:27:25;2.10;99.90
15969;DHT22;8085;53.472;9.794;2023-01-24T14:30:00;2.10;99.90
15969;DHT22;8085;53.472;9.794;2023-01-24T14:32:33;2.10;99.90
15969;DHT22;8085;53.472;9.794;2023-01-24T14:35:12;2.00;99.30
15969;DHT22;8085;53.472;9.794;2023-01-24T14:37:42;2.00;99.90
15969;DHT22;8085;53.472;9.794;2023-01-24T14:40:11;2.00;99.90
15969;DHT22;8085;53.472;9.794;2023-01-24T14:42:38;1.90;99.90
15969;DHT22;8085;53.472;9.794;2023-01-24T14:45:12;1.90;99.90
15969;DHT22;8085;53.472;9.794;2023-01-24T14:47:41;1.90;99.90
15969;DHT22;8085;53.472;9.794;2023-01-24T14:50:27;1.90;99.90
15969;DHT22;8085;53.472;9.794;2023-01-24T14:52:56;2.00;99.90
15969;DHT22;8085;53.472;9.794;2023-01-24T14:55:35;2.00;99.90
15969;DHT22;8085;53.472;9.794;2023-01-24T14:58:14;2.00;99.90
15969;DHT22;8085;53.472;9.794;2023-01-24T15:00:41;2.00;99.90
15969;DHT22;8085;53.472;9.794;2023-01-24T15:03:15;1.90;99.90
15969;DHT22;8085;53.472;9.794;2023-01-24T15:05:52;1.90;99.90
15969;DHT22;8085;53.472;9.794;2023-01-24T15:08:20;1.90;99.90
15969;DHT22;8085;53.472;9.794;2023-01-24T15:10:54;1.90;99.90
15969;DHT22;8085;53.472;9.794;2023-01-24T15:13:25;1.90;99.90
15969;DHT22;8085;53.472;9.794;2023-01-24T15:15:53;1.90;99.90
15969;DHT22;8085;53.472;9.794;2023-01-24T15:18:34;1.90;99.90
15969;DHT22;8085;53.472;9.794;2023-01-24T15:21:02;1.90;99.90
15969;DHT22;8085;53.472;9.794;2023-01-24T15:23:31;1.80;99.90
15969;DHT22;8085;53.472;9.794;2023-01-24T15:28:40;1.80;99.90
15969;DHT22;8085;53.472;9.794;2023-01-24T15:31:18;1.80;99.90
15969;DHT22;8085;53.472;9.794;2023-01-24T15:33:52;1.80;99.90
15969;DHT22;8085;53.472;9.794;2023-01-24T15:36:22;1.70;99.90
15969;DHT22;8085;53.472;9.794;2023-01-24T15:38:53;1.70;99.90
15969;DHT22;8085;53.472;9.794;2023-01-24T15:41:21;1.70;99.90
15969;DHT22;8085;53.472;9.794;2023-01-24T15:43:54;1.70;99.90
15969;DHT22;8085;53.472;9.794;2023-01-24T15:46:33;1.70;99.90
15969;DHT22;8085;53.472;9.794;2023-01-24T15:49:29;1.70;99.90
15969;DHT22;8085;53.472;9.794;2023-01-24T15:52:02;1.60;99.90
15969;DHT22;8085;53.472;9.794;2023-01-24T15:54:31;1.60;99.90
15969;DHT22;8085;53.472;9.794;2023-01-24T15:56:59;1.60;99.90
15969;DHT22;8085;53.472;9.794;2023-01-24T15:59:28;1.60;99.90
15969;DHT22;8085;53.472;9.794;2023-01-24T16:01:55;1.60;99.90
15969;DHT22;8085;53.472;9.794;2023-01-24T16:04:22;1.60;99.90
15969;DHT22;8085;53.472;9.794;2023-01-24T16:06:50;1.60;99.90
15969;DHT22;8085;53.472;9.794;2023-01-24T16:09:17;1.60;99.90
15969;DHT22;8085;53.472;9.794;2023-01-24T16:11:46;1.50;99.90
15969;DHT22;8085;53.472;9.794;2023-01-24T16:14:17;1.60;99.90
15969;DHT22;8085;53.472;9.794;2023-01-24T16:16:45;1.50;99.90
15969;DHT22;8085;53.472;9.794;2023-01-24T16:19:14;1.60;99.90
15969;DHT22;8085;53.472;9.794;2023-01-24T16:21:42;1.60;99.90
15969;DHT22;8085;53.472;9.794;2023-01-24T16:24:09;1.60;99.90
15969;DHT22;8085;53.472;9.794;2023-01-24T16:26:36;1.60;99.90
15969;DHT22;8085;53.472;9.794;2023-01-24T16:29:12;1.50;99.90
15969;DHT22;8085;53.472;9.794;2023-01-24T16:31:40;1.50;99.90
15969;DHT22;8085;53.472;9.794;2023-01-24T16:34:06;1.50;99.90
15969;DHT22;8085;53.472;9.794;2023-01-24T16:36:33;1.40;99.90
15969;DHT22;8085;53.472;9.794;2023-01-24T16:39:00;1.40;99.90
15969;DHT22;8085;53.472;9.794;2023-01-24T16:41:28;1.40;99.90
15969;DHT22;8085;53.472;9.794;2023-01-24T16:43:55;1.40;99.90
15969;DHT22;8085;53.472;9.794;2023-01-24T16:46:23;1.40;99.90
15969;DHT22;8085;53.472;9.794;2023-01-24T16:48:51;1.40;99.90